Time;durP1;ratioP1;P1;durP2;ratioP2;P2;SDS_P1;SDS_P2;PMS_P1;PMS_P2;Temp;Humidity;BMP_temperature;BMP_pressure;BME280_temperature;BME280_humidity;BME280_pressure;Samples;Min_cycle;Max_cycle;Signal;HPM_P1;HPM_P2
2022/09/12 05:02:47;;;;;;;18.40;12.68;;;11.40;99.90;;;;;;6219114;22;19911;-75
2022/09/12 05:05:12;;;;;;;;;;;11.40;99.90;;;;;;6253849;23;20012;-73
2022/09/12 05:07:39;;;;;;;20.88;13.98;;;11.40;99.90;;;;;;6254174;23;19899;-73
2022/09/12 05:10:05;;;;;;;22.30;14.77;;;11.50;99.90;;;;;;6255064;22;19992;-73
2022/09/12 05:12:30;;;;;;;23.23;15.10;;;11.40;99.90;;;;;;6255251;23;20064;-74
2022/09/12 05:14:56;;;;;;;21.50;14.48;;;11.50;99.90;;;;;;6255655;23;20016;-73
2022/09/12 05:17:27;;;;;;;25.00;15.52;;;11.40;99.90;;;;;;6254817;22;20010;-72
2022/09/12 05:19:53;;;;;;;23.60;15.27;;;11.50;99.90;;;;;;6255038;23;20221;-72
2022/09/12 05:22:18;;;;;;;28.98;15.00;;;11.50;99.90;;;;;;6228117;23;20220;-75
2022/09/12 05:24:44;;;;;;;23.88;15.30;;;11.50;99.90;;;;;;6255220;22;20000;-74
2022/09/12 05:27:10;;;;;;;21.35;14.32;;;11.60;99.90;;;;;;6252955;23;20000;-72
2022/09/12 05:29:36;;;;;;;20.40;13.27;;;11.70;99.90;;;;;;6255131;23;20023;-73
2022/09/12 05:32:02;;;;;;;19.23;12.50;;;11.80;99.90;;;;;;6254951;23;20286;-74
2022/09/12 05:34:28;;;;;;;19.83;13.93;;;11.90;99.90;;;;;;6253930;23;20007;-74
2022/09/12 05:36:53;;;;;;;23.67;13.88;;;12.00;99.90;;;;;;6255200;23;20182;-73
2022/09/12 05:39:19;;;;;;;20.05;13.60;;;12.10;99.90;;;;;;6254706;22;20225;-74
2022/09/12 05:41:46;;;;;;;19.83;13.45;;;12.10;99.90;;;;;;6255431;23;20001;-73
2022/09/12 05:44:13;;;;;;;21.35;14.20;;;12.20;99.90;;;;;;6253636;23;20020;-74
2022/09/12 05:46:45;;;;;;;22.63;14.25;;;12.30;99.90;;;;;;6254329;22;20004;-75
2022/09/12 05:49:12;;;;;;;18.33;12.77;;;12.30;99.90;;;;;;6253929;22;20016;-76
2022/09/12 05:51:41;;;;;;;20.45;12.50;;;12.40;99.90;;;;;;6253717;22;20000;-72
2022/09/12 05:54:10;;;;;;;16.85;12.73;;;12.40;99.90;;;;;;6254189;22;20236;-74
2022/09/12 05:56:39;;;;;;;16.52;11.18;;;12.50;99.90;;;;;;6248559;22;20020;-72
2022/09/12 05:59:07;;;;;;;15.73;11.27;;;12.60;99.90;;;;;;6253342;22;20035;-72
2022/09/12 06:01:34;;;;;;;16.27;12.05;;;12.60;99.90;;;;;;6253188;22;20007;-72
2022/09/12 06:04:03;;;;;;;17.67;11.90;;;12.80;99.90;;;;;;6254024;22;20237;-72
2022/09/12 06:06:31;;;;;;;18.25;11.05;;;12.90;99.90;;;;;;6253735;23;20007;-72
2022/09/12 06:08:59;;;;;;;16.98;11.98;;;12.90;99.90;;;;;;6252029;23;20004;-72
2022/09/12 06:11:27;;;;;;;27.15;19.70;;;13.00;99.90;;;;;;6253211;22;20000;-72
2022/09/12 06:13:55;;;;;;;21.80;15.38;;;13.10;99.90;;;;;;6254034;22;19988;-74
2022/09/12 06:16:32;;;;;;;24.83;16.10;;;13.30;99.90;;;;;;6252746;22;20034;-75
2022/09/12 06:19:01;;;;;;;27.05;19.45;;;13.30;99.90;;;;;;6252309;23;20062;-74
2022/09/12 06:21:27;;;;;;;20.58;12.98;;;13.40;99.90;;;;;;6253729;22;20077;-72
2022/09/12 06:23:54;;;;;;;17.38;11.02;;;13.50;99.90;;;;;;6253685;22;20061;-74
2022/09/12 06:26:22;;;;;;;16.92;9.95;;;13.60;99.90;;;;;;6252941;22;20032;-73
2022/09/12 06:28:48;;;;;;;13.32;9.05;;;13.70;99.90;;;;;;6255991;22;20006;-73
2022/09/12 06:31:35;;;;;;;15.20;9.65;;;13.80;99.90;;;;;;6253160;22;20006;-73
2022/09/12 06:34:04;;;;;;;13.18;8.35;;;13.90;99.90;;;;;;6253343;22;20233;-72
2022/09/12 06:36:33;;;;;;;16.67;9.55;;;14.00;99.90;;;;;;6252866;23;20008;-71
2022/09/12 06:39:01;;;;;;;13.68;9.73;;;14.10;99.90;;;;;;6253454;22;20004;-73
2022/09/12 06:41:28;;;;;;;16.85;10.07;;;14.20;99.90;;;;;;6252966;23;20011;-74
2022/09/12 06:43:54;;;;;;;12.35;9.07;;;14.30;99.90;;;;;;6253088;22;19988;-73
2022/09/12 06:46:20;;;;;;;27.00;18.27;;;14.40;99.90;;;;;;6252251;23;20027;-73
2022/09/12 06:48:46;;;;;;;15.27;11.35;;;14.50;99.90;;;;;;6253179;22;19992;-71
2022/09/12 06:51:14;;;;;;;13.70;9.30;;;14.60;99.90;;;;;;6252512;22;20007;-72
2022/09/12 06:53:43;;;;;;;14.05;8.45;;;14.70;99.90;;;;;;6252931;22;20011;-73
2022/09/12 06:56:11;;;;;;;12.90;8.45;;;14.80;99.90;;;;;;6252062;22;20352;-73
2022/09/12 06:58:37;;;;;;;19.40;9.95;;;15.00;99.90;;;;;;6253483;22;20285;-72
2022/09/12 07:01:16;;;;;;;15.27;8.90;;;14.90;99.90;;;;;;6250840;23;20181;-74
2022/09/12 07:03:47;;;;;;;17.27;8.88;;;14.80;99.90;;;;;;6252849;22;20016;-73
2022/09/12 07:06:15;;;;;;;17.02;10.38;;;14.80;99.90;;;;;;6253118;22;20049;-73
2022/09/12 07:08:41;;;;;;;11.63;8.82;;;15.00;99.90;;;;;;6253498;23;20000;-72
2022/09/12 07:11:08;;;;;;;14.45;9.25;;;15.10;99.90;;;;;;6252583;22;20032;-73
2022/09/12 07:13:34;;;;;;;12.60;8.75;;;15.30;99.90;;;;;;6253235;23;20130;-73
2022/09/12 07:16:04;;;;;;;12.02;8.70;;;15.40;99.90;;;;;;6251333;23;20301;-74
2022/09/12 07:18:31;;;;;;;21.10;16.58;;;15.50;99.90;;;;;;6252802;22;20004;-72
2022/09/12 07:21:00;;;;;;;14.07;9.98;;;15.60;99.90;;;;;;6252930;22;19999;-73
2022/09/12 07:23:27;;;;;;;11.43;7.93;;;15.80;99.90;;;;;;6252788;22;20106;-73
2022/09/12 07:25:57;;;;;;;15.95;8.90;;;15.80;99.90;;;;;;6253069;23;20221;-72
2022/09/12 07:28:24;;;;;;;15.23;9.00;;;15.90;99.90;;;;;;6252733;23;20000;-71
2022/09/12 07:30:52;;;;;;;15.02;9.10;;;16.00;99.90;;;;;;6253020;22;20019;-73
2022/09/12 07:33:28;;;;;;;14.30;9.00;;;16.10;99.90;;;;;;6225513;23;20015;-72
2022/09/12 07:35:54;;;;;;;13.45;8.48;;;16.10;99.90;;;;;;6252795;22;20012;-73
2022/09/12 07:38:20;;;;;;;14.13;9.15;;;16.30;99.90;;;;;;6250701;23;19996;-72
2022/09/12 07:40:46;;;;;;;13.05;7.47;;;16.40;99.90;;;;;;6253154;22;20054;-72
2022/09/12 07:43:12;;;;;;;14.52;8.25;;;16.50;99.90;;;;;;6252452;22;20067;-74
2022/09/12 07:45:40;;;;;;;11.35;8.02;;;16.70;99.90;;;;;;6252828;23;20000;-71
2022/09/12 07:48:07;;;;;;;11.32;8.15;;;16.80;99.90;;;;;;6251711;23;20000;-73
2022/09/12 07:50:32;;;;;;;10.63;7.78;;;17.00;99.90;;;;;;6251868;23;20015;-71
2022/09/12 07:52:58;;;;;;;11.43;8.07;;;17.00;99.90;;;;;;6252580;22;20207;-73
2022/09/12 07:55:24;;;;;;;11.00;6.97;;;17.10;99.90;;;;;;6252056;23;20317;-73
2022/09/12 07:57:51;;;;;;;11.90;7.47;;;17.20;99.90;;;;;;6251355;23;20293;-72
2022/09/12 08:00:17;;;;;;;10.32;7.20;;;17.20;99.90;;;;;;6252129;22;19988;-73
2022/09/12 08:02:44;;;;;;;9.68;7.20;;;17.30;99.90;;;;;;6252129;22;20245;-73
2022/09/12 08:05:10;;;;;;;15.73;8.10;;;17.40;99.90;;;;;;6225653;23;20073;-73
2022/09/12 08:07:38;;;;;;;12.07;7.68;;;17.50;99.90;;;;;;6251405;23;20067;-72
2022/09/12 08:10:05;;;;;;;;;;;17.50;99.90;;;;;;6252643;22;19988;-76
2022/09/12 08:12:31;;;;;;;10.52;6.28;;;17.60;99.90;;;;;;6252983;23;19906;-74
2022/09/12 08:14:57;;;;;;;10.98;7.40;;;17.70;99.90;;;;;;6253198;23;20012;-75
2022/09/12 08:17:23;;;;;;;11.27;6.60;;;17.80;99.90;;;;;;6254489;22;20019;-74
2022/09/12 08:19:48;;;;;;;11.02;6.80;;;17.80;99.90;;;;;;6254343;23;20000;-73
2022/09/12 08:22:14;;;;;;;12.85;6.22;;;17.90;99.90;;;;;;6254535;23;20015;-75
2022/09/12 08:24:40;;;;;;;10.48;6.20;;;18.00;99.90;;;;;;6254682;23;19992;-74
2022/09/12 08:27:06;;;;;;;10.10;6.68;;;18.10;99.90;;;;;;6254321;22;20194;-75
2022/09/12 08:29:31;;;;;;;10.10;6.88;;;18.20;99.90;;;;;;6254790;22;20000;-75
2022/09/12 08:31:57;;;;;;;9.07;6.32;;;18.20;99.90;;;;;;6254839;23;20198;-75
2022/09/12 08:34:23;;;;;;;8.95;6.30;;;18.30;99.90;;;;;;6254165;22;19995;-74
2022/09/12 08:36:53;;;;;;;9.50;5.88;;;18.40;99.90;;;;;;6253218;23;20000;-75
2022/09/12 08:39:19;;;;;;;8.50;5.93;;;18.50;99.90;;;;;;6253934;23;20003;-75
2022/09/12 08:41:47;;;;;;;8.13;5.22;;;18.40;99.90;;;;;;6253280;23;19992;-75
2022/09/12 08:44:45;;;;;;;8.30;5.38;;;18.60;99.90;;;;;;6254221;22;20000;-74
2022/09/12 08:47:31;;;;;;;7.53;5.47;;;18.70;99.90;;;;;;6252628;23;20005;-74
2022/09/12 08:50:24;;;;;;;7.60;5.03;;;18.90;99.90;;;;;;6254980;23;20004;-74
2022/09/12 08:53:16;;;;;;;6.18;4.60;;;19.00;99.90;;;;;;6254460;23;20340;-74
2022/09/12 08:55:56;;;;;;;8.18;4.70;;;19.10;99.90;;;;;;6254399;23;20028;-76
2022/09/12 08:58:24;;;;;;;6.50;3.92;;;19.30;99.90;;;;;;6254011;22;20000;-74
2022/09/12 09:01:01;;;;;;;8.50;4.07;;;19.30;99.90;;;;;;6254657;23;20102;-74
2022/09/12 09:04:04;;;;;;;5.65;3.65;;;19.50;99.90;;;;;;6254399;23;20050;-75
2022/09/12 09:06:33;;;;;;;6.07;3.90;;;19.70;99.90;;;;;;6254919;22;20000;-76
2022/09/12 09:09:07;;;;;;;5.07;3.72;;;19.90;99.90;;;;;;6253542;23;20020;-76
2022/09/12 09:12:00;;;;;;;6.00;3.65;;;20.00;99.00;;;;;;6253483;23;20004;-74
2022/09/12 09:14:47;;;;;;;5.95;3.53;;;20.20;98.80;;;;;;6253278;23;20352;-73
2022/09/12 09:17:25;;;;;;;6.32;3.50;;;20.30;98.00;;;;;;6253780;23;20004;-75
2022/09/12 09:20:05;;;;;;;5.43;3.55;;;20.60;97.20;;;;;;6254128;23;20011;-73
2022/09/12 09:22:50;;;;;;;9.57;3.63;;;20.70;96.90;;;;;;6253981;23;20286;-72
2022/09/12 09:25:42;;;;;;;7.78;3.63;;;20.90;96.40;;;;;;6252664;23;20059;-73
2022/09/12 09:28:25;;;;;;;5.45;3.45;;;21.00;95.50;;;;;;6207130;22;20000;-71
2022/09/12 09:30:51;;;;;;;7.93;3.33;;;21.10;95.20;;;;;;6254023;22;20007;-72
2022/09/12 09:33:23;;;;;;;3.60;2.95;;;21.20;94.60;;;;;;6253375;22;20194;-71
2022/09/12 09:36:19;;;;;;;5.60;2.63;;;21.30;93.90;;;;;;6254108;22;20023;-73
2022/09/12 09:38:53;;;;;;;6.18;2.78;;;21.30;93.40;;;;;;6202971;22;20015;-73
2022/09/12 09:41:27;;;;;;;7.35;2.85;;;21.50;92.90;;;;;;6251917;23;20201;-74
2022/09/12 09:43:52;;;;;;;5.60;2.28;;;21.60;91.40;;;;;;6252728;23;20361;-73
2022/09/12 09:46:18;;;;;;;5.50;2.70;;;21.60;90.30;;;;;;6253391;22;20019;-73
2022/09/12 09:48:48;;;;;;;6.95;3.00;;;21.70;90.10;;;;;;6253263;23;20006;-72
2022/09/12 09:51:24;;;;;;;4.80;3.78;;;21.80;89.60;;;;;;6253040;23;20007;-76
2022/09/12 09:53:54;;;;;;;5.03;2.78;;;21.90;87.70;;;;;;6253865;22;20027;-74
2022/09/12 09:56:32;;;;;;;5.60;3.83;;;22.00;89.00;;;;;;6252705;23;20059;-74
2022/09/12 09:59:28;;;;;;;4.47;2.13;;;22.10;85.70;;;;;;6254142;22;20067;-73
2022/09/12 10:02:13;;;;;;;8.40;3.17;;;22.10;87.40;;;;;;6253090;22;20171;-73
2022/09/12 10:04:51;;;;;;;5.78;3.17;;;22.20;86.60;;;;;;6253434;22;20004;-73
2022/09/12 10:07:20;;;;;;;5.82;3.30;;;22.40;84.40;;;;;;6253544;23;20027;-73
2022/09/12 10:10:25;;;;;;;3.88;3.15;;;22.50;84.60;;;;;;6255205;22;20121;-76
2022/09/12 10:13:07;;;;;;;3.80;1.67;;;22.70;80.70;;;;;;6254823;22;20066;-73
2022/09/12 10:15:33;;;;;;;3.75;2.20;;;22.80;82.30;;;;;;6254824;22;20004;-74
2022/09/12 10:18:37;;;;;;;3.55;2.38;;;22.90;80.30;;;;;;6253358;23;20290;-73
2022/09/12 10:24:21;;;;;;;3.70;1.92;;;23.00;79.40;;;;;;6252757;23;20046;-74
2022/09/12 10:27:11;;;;;;;4.13;2.80;;;23.10;76.20;;;;;;6254542;22;20167;-74
2022/09/12 10:30:06;;;;;;;3.25;1.70;;;23.20;78.30;;;;;;6107800;23;20045;-74
2022/09/12 10:32:38;;;;;;;3.45;1.60;;;23.40;76.40;;;;;;6078448;23;20010;-74
2022/09/12 10:35:16;;;;;;;2.25;1.30;;;23.60;75.70;;;;;;6197412;23;20008;-72
2022/09/12 10:37:59;;;;;;;2.47;1.57;;;23.60;73.70;;;;;;6254456;23;20091;-72
2022/09/12 10:40:30;;;;;;;2.17;1.25;;;23.70;76.20;;;;;;6253998;23;20426;-73
2022/09/12 10:42:58;;;;;;;4.32;1.88;;;23.80;74.10;;;;;;6253163;23;19996;-74
2022/09/12 10:45:36;;;;;;;2.97;1.52;;;24.00;75.10;;;;;;6252868;23;20046;-74
2022/09/12 10:48:28;;;;;;;2.53;1.40;;;24.20;75.20;;;;;;6253771;23;20000;-73
2022/09/12 10:50:58;;;;;;;3.22;1.55;;;24.60;73.50;;;;;;6254381;23;20221;-74
2022/09/12 10:53:42;;;;;;;3.33;1.55;;;24.70;73.80;;;;;;6227966;23;20031;-72
2022/09/12 10:56:20;;;;;;;3.53;1.60;;;24.80;73.30;;;;;;6253930;22;20083;-73
2022/09/12 10:58:52;;;;;;;2.63;1.50;;;24.90;71.50;;;;;;6254553;22;20305;-74
2022/09/12 11:01:40;;;;;;;5.13;1.48;;;25.00;72.10;;;;;;6227850;23;20489;-74
2022/09/12 11:04:12;;;;;;;;;;;25.30;71.40;;;;;;6228531;23;20063;-71
2022/09/12 11:07:14;;;;;;;3.60;1.50;;;25.80;70.10;;;;;;6228162;23;19941;-74
2022/09/12 11:09:55;;;;;;;2.58;1.23;;;26.40;67.30;;;;;;6228224;23;20004;-73
2022/09/12 11:12:35;;;;;;;2.17;1.08;;;26.90;66.20;;;;;;6252702;22;20354;-73
2022/09/12 11:15:19;;;;;;;2.75;1.02;;;27.50;64.40;;;;;;6252386;23;20003;-74
2022/09/12 11:18:08;;;;;;;2.17;0.90;;;28.10;62.90;;;;;;6251246;23;20004;-73
2022/09/12 11:20:44;;;;;;;2.78;1.05;;;28.90;61.80;;;;;;6226382;23;20194;-73
2022/09/12 11:23:54;;;;;;;1.85;0.70;;;29.80;57.80;;;;;;6251054;23;20286;-74
2022/09/12 11:26:48;;;;;;;1.67;0.60;;;29.80;57.80;;;;;;6251094;23;20245;-74
2022/09/12 11:29:38;;;;;;;1.25;0.68;;;30.40;55.80;;;;;;6251331;23;20004;-75
2022/09/12 11:32:36;;;;;;;1.20;0.55;;;31.20;54.50;;;;;;6252807;22;20059;-73
2022/09/12 11:35:23;;;;;;;2.28;0.55;;;31.90;53.60;;;;;;6252402;23;20011;-74
2022/09/12 11:38:04;;;;;;;2.50;0.90;;;32.40;53.30;;;;;;6253413;22;19996;-75
2022/09/12 11:41:19;;;;;;;1.95;0.82;;;32.00;53.00;;;;;;6251798;23;20004;-75
2022/09/12 11:43:50;;;;;;;3.28;0.60;;;32.20;53.20;;;;;;6130823;23;20006;-74
2022/09/12 11:46:26;;;;;;;2.65;0.73;;;33.10;52.20;;;;;;6214501;23;20027;-73
2022/09/12 11:49:00;;;;;;;1.30;0.60;;;34.00;53.10;;;;;;6227622;23;20043;-74
2022/09/12 11:51:39;;;;;;;1.60;0.70;;;34.80;50.30;;;;;;6253336;23;20004;-74
2022/09/12 11:54:27;;;;;;;1.63;0.90;;;35.30;50.20;;;;;;6254245;22;20022;-74
2022/09/12 11:57:02;;;;;;;1.95;0.65;;;35.60;50.80;;;;;;6255104;22;20011;-74
2022/09/12 11:59:50;;;;;;;1.63;0.70;;;35.90;50.50;;;;;;6254892;22;20190;-76
2022/09/12 12:02:35;;;;;;;1.08;0.60;;;35.50;49.50;;;;;;6227053;23;20072;-74
2022/09/12 12:05:14;;;;;;;1.73;0.80;;;34.60;50.40;;;;;;6253159;23;20194;-75
2022/09/12 12:07:47;;;;;;;2.15;0.70;;;35.00;50.80;;;;;;6254849;22;19992;-74
2022/09/12 12:10:28;;;;;;;1.23;0.60;;;34.90;49.90;;;;;;6253408;23;20051;-73
2022/09/12 12:12:56;;;;;;;1.10;0.50;;;34.80;50.20;;;;;;6253725;23;20304;-73
2022/09/12 12:15:27;;;;;;;1.50;0.80;;;35.70;50.90;;;;;;6254386;22;20008;-74
2022/09/12 12:18:14;;;;;;;2.10;0.57;;;37.10;48.50;;;;;;6228400;23;20334;-74
2022/09/12 12:20:40;;;;;;;1.63;0.50;;;37.90;47.60;;;;;;6254901;22;20008;-74
2022/09/12 12:23:24;;;;;;;1.38;0.70;;;37.40;46.50;;;;;;6253906;22;20055;-74
2022/09/12 12:25:56;;;;;;;1.08;0.57;;;36.80;46.90;;;;;;6254661;22;20004;-73
2022/09/12 12:28:40;;;;;;;1.13;0.50;;;36.50;47.30;;;;;;6254673;22;20016;-73
2022/09/12 12:31:12;;;;;;;1.85;1.05;;;37.20;47.90;;;;;;6228053;23;20193;-74
2022/09/12 12:33:38;;;;;;;0.90;0.35;;;37.80;46.50;;;;;;6254923;22;20007;-74
2022/09/12 12:36:09;;;;;;;0.65;0.20;;;38.10;45.00;;;;;;6254137;22;20001;-72
2022/09/12 12:38:39;;;;;;;0.80;0.30;;;37.30;44.40;;;;;;6254726;23;20000;-75
2022/09/12 12:41:27;;;;;;;0.77;0.30;;;37.00;44.40;;;;;;6236206;22;20004;-73
2022/09/12 12:43:55;;;;;;;0.85;0.30;;;38.10;43.90;;;;;;6255026;22;19996;-73
2022/09/12 12:46:28;;;;;;;;;;;39.40;43.80;;;;;;6254662;22;20035;-74
2022/09/12 12:48:56;;;;;;;0.77;0.40;;;40.50;44.00;;;;;;6254680;22;20127;-74
2022/09/12 12:51:25;;;;;;;0.98;0.40;;;41.50;43.40;;;;;;6227177;23;20012;-74
2022/09/12 12:53:57;;;;;;;2.05;0.60;;;41.20;42.60;;;;;;6228845;23;20000;-73
2022/09/12 12:56:38;;;;;;;1.88;0.43;;;41.10;42.50;;;;;;6253138;23;20011;-72
2022/09/12 12:59:19;;;;;;;2.05;0.55;;;40.70;43.20;;;;;;6252538;23;20004;-73
2022/09/12 13:01:48;;;;;;;2.20;0.63;;;41.70;42.30;;;;;;6227569;23;20015;-74
2022/09/12 13:04:20;;;;;;;1.05;0.40;;;42.00;41.60;;;;;;6253662;22;20051;-72
2022/09/12 13:07:02;;;;;;;0.63;0.28;;;41.20;40.80;;;;;;6254421;22;20000;-72
2022/09/12 13:09:56;;;;;;;0.82;0.38;;;41.00;41.90;;;;;;6254581;22;20055;-77
2022/09/12 13:12:36;;;;;;;0.68;0.30;;;41.10;40.40;;;;;;6252363;23;20027;-75
2022/09/12 13:15:36;;;;;;;0.50;0.20;;;40.90;40.10;;;;;;6254083;22;20213;-77
2022/09/12 13:18:13;;;;;;;0.95;0.20;;;40.50;39.30;;;;;;6253942;22;20004;-76
2022/09/12 13:20:53;;;;;;;0.93;0.20;;;41.30;39.70;;;;;;6254038;22;20042;-74
2022/09/12 13:23:24;;;;;;;0.55;0.15;;;42.00;39.90;;;;;;6253300;23;20048;-76
2022/09/12 13:25:54;;;;;;;0.63;0.30;;;43.20;39.60;;;;;;6227344;23;20171;-74
2022/09/12 13:28:20;;;;;;;1.52;0.50;;;43.00;40.00;;;;;;6253861;22;20008;-74
2022/09/12 13:31:03;;;;;;;1.73;0.32;;;42.80;39.70;;;;;;6253776;23;20026;-74
2022/09/12 13:33:46;;;;;;;1.30;0.30;;;43.90;39.10;;;;;;6254107;22;20004;-73
2022/09/12 13:37:11;;;;;;;0.77;0.30;;;43.40;38.70;;;;;;6253947;22;20067;-74
2022/09/12 13:40:10;;;;;;;0.83;0.40;;;44.40;39.20;;;;;;6131861;23;20305;-74
2022/09/12 13:42:52;;;;;;;1.58;0.50;;;44.20;38.60;;;;;;6224683;22;20004;-76
2022/09/12 13:45:24;;;;;;;1.48;0.50;;;44.90;39.80;;;;;;6253099;22;20314;-72
2022/09/12 13:47:53;;;;;;;2.70;0.50;;;45.50;38.10;;;;;;6252324;23;20340;-73
2022/09/12 13:50:40;;;;;;;1.65;0.60;;;45.70;39.10;;;;;;6253636;22;20012;-74
2022/09/12 13:53:14;;;;;;;0.95;0.40;;;46.20;38.20;;;;;;6255000;22;20004;-75
2022/09/12 13:55:45;;;;;;;1.50;0.60;;;45.80;38.40;;;;;;6255374;22;20000;-73
2022/09/12 13:58:25;;;;;;;1.90;0.70;;;44.20;38.40;;;;;;6254179;22;20053;-73
2022/09/12 14:01:08;;;;;;;1.40;0.40;;;44.40;38.60;;;;;;6253716;22;20289;-73
2022/09/12 14:06:26;;;;;;;0.77;0.30;;;44.40;38.00;;;;;;6252861;23;20008;-73
2022/09/12 14:08:55;;;;;;;1.92;0.35;;;44.90;38.50;;;;;;6253537;23;20062;-74
2022/09/12 14:11:32;;;;;;;1.17;0.32;;;44.70;37.60;;;;;;6253959;22;20007;-74
2022/09/12 14:14:02;;;;;;;1.85;0.30;;;43.20;37.80;;;;;;6253636;23;20007;-73
2022/09/12 14:16:30;;;;;;;0.30;0.17;;;44.50;37.40;;;;;;6254129;23;20004;-73
2022/09/12 14:18:56;;;;;;;1.00;0.20;;;42.70;38.20;;;;;;6228473;23;20063;-73
2022/09/12 14:21:29;;;;;;;0.77;0.20;;;42.50;37.40;;;;;;6253196;23;20011;-74
2022/09/12 14:23:56;;;;;;;3.42;0.30;;;43.50;37.50;;;;;;6227871;23;20305;-73
2022/09/12 14:26:24;;;;;;;2.45;2.13;;;43.90;37.80;;;;;;6252636;23;20367;-74
2022/09/12 14:28:50;;;;;;;2.45;0.40;;;44.80;37.00;;;;;;6254776;22;20269;-73
2022/09/12 14:31:27;;;;;;;1.10;0.40;;;44.80;36.80;;;;;;6254069;22;20290;-74
2022/09/12 14:33:55;;;;;;;1.15;0.25;;;44.30;38.30;;;;;;6255288;22;20050;-75
2022/09/12 14:36:34;;;;;;;0.60;0.30;;;45.70;36.80;;;;;;6254372;22;20190;-73
2022/09/12 14:39:06;;;;;;;0.63;0.30;;;45.80;36.70;;;;;;6228723;23;20007;-73
2022/09/12 14:41:35;;;;;;;0.60;0.20;;;46.30;36.40;;;;;;6253377;23;20048;-73
2022/09/12 14:44:07;;;;;;;1.00;0.30;;;45.90;36.30;;;;;;6253253;23;20003;-73
2022/09/12 14:46:39;;;;;;;0.75;0.30;;;46.10;37.30;;;;;;6254519;22;20051;-74
2022/09/12 14:49:34;;;;;;;0.52;0.20;;;46.70;37.00;;;;;;6254540;22;20060;-74
2022/09/12 14:52:23;;;;;;;0.75;0.30;;;46.40;36.10;;;;;;6253334;23;20026;-74
2022/09/12 14:55:26;;;;;;;0.73;0.25;;;44.80;37.20;;;;;;6254441;23;20051;-76
2022/09/12 14:58:20;;;;;;;1.15;0.30;;;44.10;38.80;;;;;;6252878;23;20015;-75
2022/09/12 15:01:12;;;;;;;1.20;0.30;;;43.60;37.50;;;;;;6254297;22;20007;-75
2022/09/12 15:03:52;;;;;;;2.55;0.30;;;43.10;37.70;;;;;;6207863;23;20042;-74
2022/09/12 15:06:27;;;;;;;0.60;0.30;;;43.10;37.60;;;;;;6254031;22;20004;-74
2022/09/12 15:08:55;;;;;;;1.02;0.32;;;43.90;38.20;;;;;;6254831;22;20127;-76
2022/09/12 15:11:21;;;;;;;1.38;0.40;;;44.10;37.60;;;;;;6253191;23;19992;-75
2022/09/12 15:13:47;;;;;;;1.00;0.40;;;43.80;37.70;;;;;;6254597;23;20282;-74
2022/09/12 15:16:33;;;;;;;1.00;0.40;;;43.20;38.00;;;;;;6254064;22;20067;-75
2022/09/12 15:18:59;;;;;;;1.05;0.40;;;43.20;38.60;;;;;;6252581;23;20000;-75
2022/09/12 15:21:25;;;;;;;1.20;0.50;;;42.40;39.30;;;;;;6227736;23;20008;-75
2022/09/12 15:23:52;;;;;;;1.70;0.30;;;44.10;39.00;;;;;;6228340;23;20011;-75
2022/09/12 15:26:21;;;;;;;1.55;0.40;;;44.90;37.80;;;;;;6253908;22;19996;-74
2022/09/12 15:28:47;;;;;;;1.55;0.47;;;44.70;37.50;;;;;;6256862;22;19996;-73
2022/09/12 15:31:31;;;;;;;5.68;5.18;;;44.70;37.10;;;;;;6221243;23;20011;-72
2022/09/12 15:34:02;;;;;;;1.95;1.05;;;45.00;36.90;;;;;;6223464;23;20291;-73
2022/09/12 15:36:37;;;;;;;1.48;0.57;;;45.50;37.20;;;;;;6199273;23;20202;-75
2022/09/12 15:39:06;;;;;;;0.90;0.30;;;44.80;37.80;;;;;;6199265;23;20011;-74
2022/09/12 15:41:38;;;;;;;0.80;0.40;;;45.10;37.30;;;;;;6172932;23;20039;-74
2022/09/12 15:44:06;;;;;;;1.20;0.47;;;44.00;37.40;;;;;;6198694;23;20011;-73
2022/09/12 15:46:34;;;;;;;1.30;0.40;;;44.20;37.40;;;;;;6173540;23;20008;-75
2022/09/12 15:49:01;;;;;;;1.10;0.70;;;43.50;38.10;;;;;;6172428;23;20310;-75
2022/09/12 15:51:27;;;;;;;2.78;0.52;;;43.40;39.40;;;;;;6171415;23;20016;-77
2022/09/12 15:53:52;;;;;;;3.05;0.50;;;43.80;38.80;;;;;;6221816;23;20007;-75
2022/09/12 15:56:21;;;;;;;1.10;0.55;;;43.40;38.00;;;;;;6222622;23;20015;-76
2022/09/12 15:58:48;;;;;;;0.98;0.40;;;43.50;38.00;;;;;;6198067;23;20056;-72
2022/09/12 16:01:16;;;;;;;1.00;0.60;;;43.20;38.50;;;;;;6177263;23;20020;-74
2022/09/12 16:03:45;;;;;;;3.38;2.78;;;43.60;38.50;;;;;;6254662;22;20294;-73
2022/09/12 16:06:10;;;;;;;2.63;1.77;;;42.50;38.60;;;;;;6253748;22;20016;-75
2022/09/12 16:08:36;;;;;;;2.60;0.93;;;42.80;39.20;;;;;;6252989;23;20075;-75
2022/09/12 16:11:06;;;;;;;0.90;0.50;;;42.60;39.10;;;;;;6253315;22;20277;-75
2022/09/12 16:13:31;;;;;;;1.50;0.60;;;42.50;39.10;;;;;;6252585;22;19996;-73
2022/09/12 16:15:58;;;;;;;0.98;0.50;;;41.80;39.50;;;;;;6253209;23;20282;-75
2022/09/12 16:18:24;;;;;;;1.98;1.17;;;40.80;40.10;;;;;;6253248;23;20000;-74
2022/09/12 16:20:53;;;;;;;1.55;0.52;;;41.10;40.30;;;;;;6254797;22;20015;-75
2022/09/12 16:23:19;;;;;;;2.53;0.70;;;40.10;40.20;;;;;;6250680;23;19996;-75
2022/09/12 16:25:54;;;;;;;1.25;0.50;;;40.20;40.60;;;;;;6253520;23;20011;-76
2022/09/12 16:28:20;;;;;;;1.60;0.52;;;39.50;40.80;;;;;;6252731;22;20060;-75
2022/09/12 16:30:57;;;;;;;1.60;0.90;;;38.60;41.50;;;;;;6251783;23;20004;-76
2022/09/12 16:33:23;;;;;;;2.17;0.60;;;38.30;41.50;;;;;;6252373;23;20048;-75
2022/09/12 16:35:50;;;;;;;1.17;0.50;;;37.50;41.90;;;;;;6254186;23;20341;-77
2022/09/12 16:38:19;;;;;;;1.33;0.60;;;37.20;43.00;;;;;;6254204;23;20000;-77
2022/09/12 16:40:45;;;;;;;1.58;0.68;;;36.50;42.70;;;;;;6256188;22;20072;-76
2022/09/12 16:43:18;;;;;;;2.78;2.47;;;35.70;43.70;;;;;;6256026;23;20000;-76
2022/09/12 16:45:43;;;;;;;2.28;0.60;;;35.10;43.90;;;;;;6254595;23;20011;-76
2022/09/12 16:48:10;;;;;;;1.42;0.60;;;34.60;44.70;;;;;;6255015;23;20024;-76
2022/09/12 16:50:35;;;;;;;2.50;0.90;;;33.60;45.80;;;;;;6255178;22;20006;-76
2022/09/12 16:53:01;;;;;;;1.58;0.70;;;32.90;46.40;;;;;;6256198;23;20000;-76
2022/09/12 16:55:27;;;;;;;2.10;0.80;;;31.70;47.50;;;;;;6255462;23;20309;-74
2022/09/12 16:57:54;;;;;;;1.88;0.80;;;31.10;48.50;;;;;;6255936;22;20190;-75
2022/09/12 17:00:28;;;;;;;2.00;1.00;;;30.60;49.20;;;;;;6254122;23;20004;-77
2022/09/12 17:03:03;;;;;;;2.45;1.17;;;30.10;51.00;;;;;;6256357;23;20027;-78
2022/09/12 17:05:29;;;;;;;2.10;1.10;;;29.70;51.10;;;;;;6255019;22;20000;-74
2022/09/12 17:07:54;;;;;;;2.90;1.00;;;29.20;51.90;;;;;;6257025;22;20106;-75
2022/09/12 17:10:20;;;;;;;2.10;1.13;;;28.80;52.60;;;;;;6254998;23;20008;-73
2022/09/12 17:12:46;;;;;;;3.10;1.88;;;28.50;52.90;;;;;;6255453;22;19996;-75
2022/09/12 17:15:12;;;;;;;3.05;1.77;;;28.30;53.60;;;;;;6255710;22;20050;-75
2022/09/12 17:17:38;;;;;;;2.55;1.40;;;28.00;54.10;;;;;;6255145;23;20291;-74
2022/09/12 17:20:04;;;;;;;1.90;1.05;;;27.80;54.30;;;;;;6255651;22;20042;-75
2022/09/12 17:22:32;;;;;;;2.67;1.10;;;27.60;54.80;;;;;;6254789;22;20004;-74
2022/09/12 17:24:58;;;;;;;2.45;1.27;;;27.40;55.20;;;;;;6255494;22;20004;-75
2022/09/12 17:27:24;;;;;;;2.25;1.10;;;27.20;55.60;;;;;;6253434;23;20000;-75
2022/09/12 17:29:52;;;;;;;2.33;0.90;;;27.00;56.20;;;;;;6255896;23;20000;-77
2022/09/12 17:32:18;;;;;;;2.97;1.60;;;26.70;56.40;;;;;;6253531;23;20004;-76
2022/09/12 17:34:44;;;;;;;2.80;1.13;;;26.50;57.20;;;;;;6256180;22;19992;-76
2022/09/12 17:37:10;;;;;;;3.35;1.27;;;26.30;57.70;;;;;;6255867;23;20055;-74
2022/09/12 17:39:35;;;;;;;2.72;1.77;;;26.00;57.80;;;;;;6255017;23;20000;-75
2022/09/12 17:42:05;;;;;;;2.35;1.40;;;25.80;58.70;;;;;;6255866;22;20000;-74
2022/09/12 17:44:33;;;;;;;2.95;1.20;;;25.70;59.00;;;;;;6253229;23;20014;-75
2022/09/12 17:46:58;;;;;;;3.40;1.40;;;25.40;59.00;;;;;;6253352;23;19992;-76
2022/09/12 17:49:24;;;;;;;2.40;1.05;;;25.30;59.40;;;;;;6254761;23;20228;-75
2022/09/12 17:51:50;;;;;;;2.22;1.10;;;25.10;60.00;;;;;;6254637;22;20000;-76
2022/09/12 17:54:19;;;;;;;2.72;1.20;;;24.90;60.20;;;;;;6254511;22;20000;-76
2022/09/12 17:56:48;;;;;;;2.92;1.20;;;24.70;61.50;;;;;;6254276;23;20004;-77
2022/09/12 17:59:20;;;;;;;3.03;1.52;;;24.60;61.10;;;;;;6255002;23;20000;-78
2022/09/12 18:04:30;;;;;;;3.15;1.60;;;24.30;62.90;;;;;;6254589;23;20385;-75
2022/09/12 18:06:56;;;;;;;3.67;2.00;;;24.30;62.90;;;;;;6255081;22;20306;-75
2022/09/12 18:09:25;;;;;;;4.07;2.50;;;24.30;63.80;;;;;;6254100;22;20019;-75
2022/09/12 18:11:52;;;;;;;4.68;2.63;;;24.20;63.90;;;;;;6255448;22;20193;-75
2022/09/12 18:14:18;;;;;;;4.50;2.50;;;24.20;64.60;;;;;;6254527;22;20038;-75
2022/09/12 18:16:45;;;;;;;4.40;2.67;;;24.10;64.80;;;;;;6255463;23;20008;-74
2022/09/12 18:19:11;;;;;;;4.97;2.83;;;24.00;65.30;;;;;;6255275;22;20023;-75
2022/09/12 18:21:37;;;;;;;6.63;3.08;;;23.90;65.40;;;;;;6253162;23;20285;-73
2022/09/12 18:24:03;;;;;;;5.28;3.40;;;23.80;65.70;;;;;;6254756;22;20000;-75